Terminal Aerodrome Forecast
Issued by NWS

Home | Current Version | Previous Version | Text Only | Print | Product List | Glossary Off
Versions: 1 2 3 4 5 6 7 8 9 10 11 12 13 14 15

000
FTUS43 KICT 201700 RRA
TAFSLN
TAF
KSLN 201742Z 2018/2118 19013G21KT P6SM VCSH SCT070 BKN150
     FM210100 17010KT P6SM VCTS SCT030 BKN050CB
     FM210500 22012KT P6SM VCTS BKN030CB
     FM211200 34014KT P6SM VCSH BKN025
     FM211600 36012KT P6SM SCT025 BKN060=

USA.gov is the U.S. government's official web portal to all federal, state and local government web resources and services.